sensor_id;sensor_type;location;lat;lon;timestamp;pressure;altitude;pressure_sealevel;temperature;humidity
59419;BME280;45224;50.904;6.038;2023-07-31T00:01:00;99476.50;;;16.54;100.00
59419;BME280;45224;50.904;6.038;2023-07-31T00:02:31;99465.38;;;16.47;100.00
59419;BME280;45224;50.904;6.038;2023-07-31T00:04:01;99485.25;;;16.51;100.00
59419;BME280;45224;50.904;6.038;2023-07-31T00:05:31;99475.81;;;16.47;100.00
59419;BME280;45224;50.904;6.038;2023-07-31T00:07:02;99475.34;;;16.63;100.00
59419;BME280;45224;50.904;6.038;2023-07-31T00:08:34;99473.13;;;16.49;100.00
59419;BME280;45224;50.904;6.038;2023-07-31T00:10:05;99473.00;;;16.53;100.00
59419;BME280;45224;50.904;6.038;2023-07-31T00:11:36;99471.13;;;16.58;100.00
59419;BME280;45224;50.904;6.038;2023-07-31T00:13:06;99475.44;;;16.59;100.00
59419;BME280;45224;50.904;6.038;2023-07-31T00:14:37;99477.25;;;16.57;100.00
59419;BME280;45224;50.904;6.038;2023-07-31T00:16:08;99466.19;;;16.49;100.00
59419;BME280;45224;50.904;6.038;2023-07-31T00:17:38;99465.91;;;16.58;100.00
59419;BME280;45224;50.904;6.038;2023-07-31T00:19:09;99473.63;;;16.61;100.00
59419;BME280;45224;50.904;6.038;2023-07-31T00:20:42;99473.06;;;16.52;100.00
59419;BME280;45224;50.904;6.038;2023-07-31T00:22:12;99469.34;;;16.60;100.00
59419;BME280;45224;50.904;6.038;2023-07-31T00:23:43;99472.03;;;16.57;100.00
59419;BME280;45224;50.904;6.038;2023-07-31T00:25:13;99473.31;;;16.44;100.00
59419;BME280;45224;50.904;6.038;2023-07-31T00:26:44;99467.88;;;16.50;100.00
59419;BME280;45224;50.904;6.038;2023-07-31T00:28:14;99468.78;;;16.49;100.00
59419;BME280;45224;50.904;6.038;2023-07-31T00:29:45;99458.44;;;16.46;100.00
59419;BME280;45224;50.904;6.038;2023-07-31T00:31:15;99473.47;;;16.38;100.00
59419;BME280;45224;50.904;6.038;2023-07-31T00:32:46;99464.69;;;16.40;100.00
59419;BME280;45224;50.904;6.038;2023-07-31T00:34:16;99448.28;;;16.37;100.00
59419;BME280;45224;50.904;6.038;2023-07-31T00:35:48;99459.38;;;16.43;100.00
59419;BME280;45224;50.904;6.038;2023-07-31T00:37:19;99451.69;;;16.39;100.00
59419;BME280;45224;50.904;6.038;2023-07-31T00:38:49;99449.91;;;16.41;100.00
59419;BME280;45224;50.904;6.038;2023-07-31T00:40:19;99456.91;;;16.39;100.00
59419;BME280;45224;50.904;6.038;2023-07-31T00:41:50;99450.84;;;16.38;100.00
59419;BME280;45224;50.904;6.038;2023-07-31T00:43:21;99447.97;;;16.48;100.00
59419;BME280;45224;50.904;6.038;2023-07-31T00:44:53;99437.66;;;16.43;100.00
59419;BME280;45224;50.904;6.038;2023-07-31T00:46:23;99458.34;;;16.49;100.00
59419;BME280;45224;50.904;6.038;2023-07-31T00:47:54;99444.50;;;16.47;100.00
59419;BME280;45224;50.904;6.038;2023-07-31T00:49:24;99447.34;;;16.39;100.00
59419;BME280;45224;50.904;6.038;2023-07-31T00:50:56;99449.72;;;16.47;100.00
59419;BME280;45224;50.904;6.038;2023-07-31T00:52:26;99451.59;;;16.42;100.00
59419;BME280;45224;50.904;6.038;2023-07-31T00:53:57;99450.84;;;16.38;100.00
59419;BME280;45224;50.904;6.038;2023-07-31T00:55:29;99444.50;;;16.47;100.00
59419;BME280;45224;50.904;6.038;2023-07-31T00:57:00;99441.91;;;16.47;100.00
59419;BME280;45224;50.904;6.038;2023-07-31T00:58:32;99430.72;;;16.42;100.00
59419;BME280;45224;50.904;6.038;2023-07-31T01:00:03;99442.69;;;16.49;100.00
59419;BME280;45224;50.904;6.038;2023-07-31T01:01:33;99432.25;;;16.49;100.00
59419;BME280;45224;50.904;6.038;2023-07-31T01:03:04;99433.94;;;16.50;100.00
59419;BME280;45224;50.904;6.038;2023-07-31T01:04:35;99435.66;;;16.51;100.00
59419;BME280;45224;50.904;6.038;2023-07-31T01:08:38;99440.50;;;16.35;100.00
59419;BME280;45224;50.904;6.038;2023-07-31T01:10:16;99432.44;;;16.43;100.00
59419;BME280;45224;50.904;6.038;2023-07-31T01:11:53;99437.66;;;16.43;100.00
59419;BME280;45224;50.904;6.038;2023-07-31T01:13:26;99423.78;;;16.42;100.00
59419;BME280;45224;50.904;6.038;2023-07-31T01:15:06;99418.50;;;16.44;100.00
59419;BME280;45224;50.904;6.038;2023-07-31T01:16:38;99425.19;;;16.53;100.00
59419;BME280;45224;50.904;6.038;2023-07-31T01:18:09;99424.16;;;16.58;100.00
59419;BME280;45224;50.904;6.038;2023-07-31T01:19:40;99426.97;;;16.52;100.00
59419;BME280;45224;50.904;6.038;2023-07-31T01:23:22;99414.63;;;16.57;100.00
59419;BME280;45224;50.904;6.038;2023-07-31T01:25:08;99418.03;;;16.59;100.00
59419;BME280;45224;50.904;6.038;2023-07-31T01:26:49;99433.03;;;16.53;100.00
59419;BME280;45224;50.904;6.038;2023-07-31T01:28:38;99426.66;;;16.61;100.00
59419;BME280;45224;50.904;6.038;2023-07-31T01:30:22;99436.91;;;16.68;100.00
59419;BME280;45224;50.904;6.038;2023-07-31T01:31:56;99426.38;;;16.71;100.00
59419;BME280;45224;50.904;6.038;2023-07-31T01:33:28;99425.50;;;16.72;100.00
59419;BME280;45224;50.904;6.038;2023-07-31T01:34:59;99416.22;;;16.61;100.00
59419;BME280;45224;50.904;6.038;2023-07-31T01:36:30;99411.63;;;16.70;100.00
59419;BME280;45224;50.904;6.038;2023-07-31T01:38:01;99415.00;;;16.73;100.00
59419;BME280;45224;50.904;6.038;2023-07-31T01:39:32;99418.22;;;16.82;100.00
59419;BME280;45224;50.904;6.038;2023-07-31T01:41:02;99419.22;;;16.77;100.00
59419;BME280;45224;50.904;6.038;2023-07-31T01:42:33;99417.66;;;16.72;100.00
59419;BME280;45224;50.904;6.038;2023-07-31T01:44:03;99411.69;;;16.68;100.00
59419;BME280;45224;50.904;6.038;2023-07-31T01:45:34;99411.50;;;16.73;100.00
59419;BME280;45224;50.904;6.038;2023-07-31T01:47:05;99420.09;;;16.78;100.00
59419;BME280;45224;50.904;6.038;2023-07-31T01:48:36;99418.44;;;16.74;100.00
59419;BME280;45224;50.904;6.038;2023-07-31T01:50:07;99407.91;;;16.77;100.00
59419;BME280;45224;50.904;6.038;2023-07-31T01:51:38;99410.53;;;16.77;100.00
59419;BME280;45224;50.904;6.038;2023-07-31T01:53:08;99411.28;;;16.80;100.00
59419;BME280;45224;50.904;6.038;2023-07-31T01:54:39;99395.28;;;16.63;100.00
59419;BME280;45224;50.904;6.038;2023-07-31T01:56:09;99405.59;;;16.68;100.00
59419;BME280;45224;50.904;6.038;2023-07-31T01:57:40;99403.59;;;16.76;100.00
59419;BME280;45224;50.904;6.038;2023-07-31T01:59:10;99390.03;;;16.65;100.00
59419;BME280;45224;50.904;6.038;2023-07-31T02:00:41;99406.41;;;16.70;100.00
59419;BME280;45224;50.904;6.038;2023-07-31T02:02:12;99397.63;;;16.72;100.00
59419;BME280;45224;50.904;6.038;2023-07-31T02:03:43;99409.97;;;16.67;100.00
59419;BME280;45224;50.904;6.038;2023-07-31T02:05:13;99386.53;;;16.66;100.00
59419;BME280;45224;50.904;6.038;2023-07-31T02:06:44;99400.38;;;16.68;100.00
59419;BME280;45224;50.904;6.038;2023-07-31T02:08:15;99393.25;;;16.73;100.00
59419;BME280;45224;50.904;6.038;2023-07-31T02:09:45;99382.25;;;16.63;100.00
59419;BME280;45224;50.904;6.038;2023-07-31T02:11:18;99395.25;;;16.65;100.00
59419;BME280;45224;50.904;6.038;2023-07-31T02:12:48;99384.81;;;16.65;100.00
59419;BME280;45224;50.904;6.038;2023-07-31T02:14:19;99382.94;;;16.70;100.00
59419;BME280;45224;50.904;6.038;2023-07-31T02:15:49;99380.00;;;16.79;100.00
59419;BME280;45224;50.904;6.038;2023-07-31T02:17:22;99387.88;;;16.77;100.00
59419;BME280;45224;50.904;6.038;2023-07-31T02:18:53;99378.31;;;16.78;100.00
59419;BME280;45224;50.904;6.038;2023-07-31T02:20:24;99374.63;;;16.85;100.00
59419;BME280;45224;50.904;6.038;2023-07-31T02:21:54;99388.38;;;16.90;100.00
59419;BME280;45224;50.904;6.038;2023-07-31T02:23:26;99377.13;;;16.88;100.00
59419;BME280;45224;50.904;6.038;2023-07-31T02:24:57;99373.53;;;16.92;100.00
59419;BME280;45224;50.904;6.038;2023-07-31T02:26:27;99376.06;;;16.94;100.00
59419;BME280;45224;50.904;6.038;2023-07-31T02:27:58;99371.66;;;16.96;100.00
59419;BME280;45224;50.904;6.038;2023-07-31T02:29:29;99373.75;;;16.85;100.00
59419;BME280;45224;50.904;6.038;2023-07-31T02:31:00;99365.91;;;16.86;100.00
59419;BME280;45224;50.904;6.038;2023-07-31T02:32:30;99375.13;;;16.96;100.00
59419;BME280;45224;50.904;6.038;2023-07-31T02:34:01;99366.50;;;16.94;100.00
59419;BME280;45224;50.904;6.038;2023-07-31T02:35:31;99366.41;;;16.97;100.00
59419;BME280;45224;50.904;6.038;2023-07-31T02:37:02;99360.88;;;16.78;100.00
59419;BME280;45224;50.904;6.038;2023-07-31T02:38:32;99362.56;;;16.81;100.00
59419;BME280;45224;50.904;6.038;2023-07-31T02:40:03;99365.75;;;16.91;100.00
59419;BME280;45224;50.904;6.038;2023-07-31T02:41:34;99362.22;;;16.92;100.00
59419;BME280;45224;50.904;6.038;2023-07-31T02:43:04;99349.13;;;16.93;100.00
59419;BME280;45224;50.904;6.038;2023-07-31T02:44:35;99363.75;;;16.99;100.00
59419;BME280;45224;50.904;6.038;2023-07-31T02:46:06;99359.41;;;16.98;100.00
59419;BME280;45224;50.904;6.038;2023-07-31T02:47:36;99366.41;;;16.97;100.00
59419;BME280;45224;50.904;6.038;2023-07-31T02:49:07;99359.94;;;16.81;100.00
59419;BME280;45224;50.904;6.038;2023-07-31T02:50:37;99363.09;;;16.92;100.00
59419;BME280;45224;50.904;6.038;2023-07-31T02:52:08;99363.25;;;16.88;100.00
59419;BME280;45224;50.904;6.038;2023-07-31T02:53:38;99358.81;;;16.90;100.00
59419;BME280;45224;50.904;6.038;2023-07-31T02:55:09;99349.50;;;16.81;100.00
59419;BME280;45224;50.904;6.038;2023-07-31T02:56:39;99362.44;;;16.84;100.00
59419;BME280;45224;50.904;6.038;2023-07-31T02:58:09;99359.94;;;16.81;100.00
59419;BME280;45224;50.904;6.038;2023-07-31T02:59:40;99345.38;;;16.74;100.00
59419;BME280;45224;50.904;6.038;2023-07-31T03:01:10;99352.84;;;16.86;100.00
59419;BME280;45224;50.904;6.038;2023-07-31T03:02:41;99338.94;;;16.84;100.00
59419;BME280;45224;50.904;6.038;2023-07-31T03:04:12;99352.91;;;16.83;100.00
59419;BME280;45224;50.904;6.038;2023-07-31T03:05:42;99352.84;;;16.85;100.00
59419;BME280;45224;50.904;6.038;2023-07-31T03:07:13;99346.56;;;16.92;100.00
59419;BME280;45224;50.904;6.038;2023-07-31T03:08:43;99344.19;;;16.83;100.00
59419;BME280;45224;50.904;6.038;2023-07-31T03:10:14;99343.28;;;16.85;100.00
59419;BME280;45224;50.904;6.038;2023-07-31T03:11:45;99351.97;;;16.86;100.00
59419;BME280;45224;50.904;6.038;2023-07-31T03:13:15;99345.59;;;16.94;100.00
59419;BME280;45224;50.904;6.038;2023-07-31T03:14:46;99337.97;;;16.88;100.00
59419;BME280;45224;50.904;6.038;2023-07-31T03:16:16;99337.09;;;16.89;100.00
59419;BME280;45224;50.904;6.038;2023-07-31T03:17:47;99343.78;;;16.96;100.00
59419;BME280;45224;50.904;6.038;2023-07-31T03:19:17;99342.19;;;16.92;100.00
59419;BME280;45224;50.904;6.038;2023-07-31T03:20:48;99343.34;;;16.82;100.00
59419;BME280;45224;50.904;6.038;2023-07-31T03:22:20;99331.97;;;16.86;100.00
59419;BME280;45224;50.904;6.038;2023-07-31T03:23:51;99338.66;;;16.93;100.00
59419;BME280;45224;50.904;6.038;2023-07-31T03:25:21;99342.78;;;17.01;100.00
59419;BME280;45224;50.904;6.038;2023-07-31T03:26:51;99346.44;;;16.95;100.00
59419;BME280;45224;50.904;6.038;2023-07-31T03:28:22;99336.75;;;16.98;100.00
59419;BME280;45224;50.904;6.038;2023-07-31T03:29:53;99347.84;;;17.05;100.00
59419;BME280;45224;50.904;6.038;2023-07-31T03:31:23;99337.63;;;16.99;100.00
59419;BME280;45224;50.904;6.038;2023-07-31T03:32:54;99336.66;;;17.02;100.00
59419;BME280;45224;50.904;6.038;2023-07-31T03:34:24;99329.41;;;17.10;100.00
59419;BME280;45224;50.904;6.038;2023-07-31T03:35:55;99323.78;;;16.95;100.00
59419;BME280;45224;50.904;6.038;2023-07-31T03:37:25;99326.31;;;16.98;100.00
59419;BME280;45224;50.904;6.038;2023-07-31T03:38:57;99327.03;;;17.04;100.00
59419;BME280;45224;50.904;6.038;2023-07-31T03:40:28;99326.09;;;17.05;100.00
59419;BME280;45224;50.904;6.038;2023-07-31T03:41:58;99336.44;;;17.08;100.00
59419;BME280;45224;50.904;6.038;2023-07-31T03:43:29;99318.22;;;17.06;100.00
59419;BME280;45224;50.904;6.038;2023-07-31T03:44:59;99319.06;;;17.07;100.00
59419;BME280;45224;50.904;6.038;2023-07-31T03:46:30;99319.78;;;17.12;100.00
59419;BME280;45224;50.904;6.038;2023-07-31T03:48:01;99320.78;;;17.08;100.00
59419;BME280;45224;50.904;6.038;2023-07-31T03:49:32;99316.41;;;17.08;100.00
59419;BME280;45224;50.904;6.038;2023-07-31T03:51:02;99315.44;;;17.11;100.00
59419;BME280;45224;50.904;6.038;2023-07-31T03:52:32;99320.69;;;17.11;100.00
59419;BME280;45224;50.904;6.038;2023-07-31T03:54:03;99317.56;;;17.00;100.00
59419;BME280;45224;50.904;6.038;2023-07-31T03:55:33;99303.81;;;16.94;100.00
59419;BME280;45224;50.904;6.038;2023-07-31T03:57:04;99311.50;;;16.99;100.00
59419;BME280;45224;50.904;6.038;2023-07-31T03:58:34;99309.59;;;17.04;100.00
59419;BME280;45224;50.904;6.038;2023-07-31T04:00:06;99321.09;;;16.98;100.00
59419;BME280;45224;50.904;6.038;2023-07-31T04:01:42;99309.09;;;16.93;100.00
59419;BME280;45224;50.904;6.038;2023-07-31T04:03:13;99311.72;;;16.93;100.00
59419;BME280;45224;50.904;6.038;2023-07-31T04:04:43;99320.09;;;17.03;100.00
59419;BME280;45224;50.904;6.038;2023-07-31T04:06:14;99310.28;;;17.09;100.00
59419;BME280;45224;50.904;6.038;2023-07-31T04:07:48;99317.16;;;17.12;100.00
59419;BME280;45224;50.904;6.038;2023-07-31T04:09:18;99302.66;;;17.03;100.00
59419;BME280;45224;50.904;6.038;2023-07-31T04:10:50;99301.69;;;17.06;100.00
59419;BME280;45224;50.904;6.038;2023-07-31T04:12:20;99300.72;;;17.08;100.00
59419;BME280;45224;50.904;6.038;2023-07-31T04:13:51;99303.53;;;17.04;100.00
59419;BME280;45224;50.904;6.038;2023-07-31T04:15:21;99305.31;;;17.02;100.00
59419;BME280;45224;50.904;6.038;2023-07-31T04:16:52;99299.09;;;17.06;100.00
59419;BME280;45224;50.904;6.038;2023-07-31T04:18:25;99298.31;;;17.04;100.00
59419;BME280;45224;50.904;6.038;2023-07-31T04:19:56;99303.38;;;17.07;100.00
59419;BME280;45224;50.904;6.038;2023-07-31T04:21:26;99298.41;;;17.01;100.00
59419;BME280;45224;50.904;6.038;2023-07-31T04:22:57;99294.88;;;17.02;100.00
59419;BME280;45224;50.904;6.038;2023-07-31T04:24:27;99303.38;;;17.07;100.00
59419;BME280;45224;50.904;6.038;2023-07-31T04:25:58;99293.19;;;17.01;100.00
59419;BME280;45224;50.904;6.038;2023-07-31T04:27:28;99288.66;;;17.06;100.00
59419;BME280;45224;50.904;6.038;2023-07-31T04:28:59;99284.22;;;17.08;100.00
59419;BME280;45224;50.904;6.038;2023-07-31T04:30:29;99283.22;;;17.12;100.00
59419;BME280;45224;50.904;6.038;2023-07-31T04:31:59;99267.19;;;16.97;100.00
59419;BME280;45224;50.904;6.038;2023-07-31T04:33:30;99274.84;;;17.02;100.00
59419;BME280;45224;50.904;6.038;2023-07-31T04:35:01;99284.53;;;16.98;100.00
59419;BME280;45224;50.904;6.038;2023-07-31T04:36:33;99280.81;;;17.06;100.00
59419;BME280;45224;50.904;6.038;2023-07-31T04:38:03;99279.25;;;17.00;100.00
59419;BME280;45224;50.904;6.038;2023-07-31T04:39:34;99271.72;;;16.92;100.00
59419;BME280;45224;50.904;6.038;2023-07-31T04:41:04;99270.56;;;17.00;100.00
59419;BME280;45224;50.904;6.038;2023-07-31T04:42:35;99272.19;;;17.04;100.00
59419;BME280;45224;50.904;6.038;2023-07-31T04:44:06;99270.56;;;17.00;100.00
59419;BME280;45224;50.904;6.038;2023-07-31T04:45:36;99275.59;;;17.06;100.00
59419;BME280;45224;50.904;6.038;2023-07-31T04:47:07;99274.66;;;17.07;100.00
59419;BME280;45224;50.904;6.038;2023-07-31T04:48:37;99272.78;;;17.12;100.00
59419;BME280;45224;50.904;6.038;2023-07-31T04:50:08;99267.81;;;17.04;100.00
59419;BME280;45224;50.904;6.038;2023-07-31T04:51:39;99267.84;;;17.03;100.00
59419;BME280;45224;50.904;6.038;2023-07-31T04:53:09;99268.69;;;17.03;100.00
59419;BME280;45224;50.904;6.038;2023-07-31T04:54:40;99272.06;;;17.07;100.00
59419;BME280;45224;50.904;6.038;2023-07-31T04:56:10;99273.66;;;17.11;100.00
59419;BME280;45224;50.904;6.038;2023-07-31T04:57:40;99269.56;;;17.04;100.00
59419;BME280;45224;50.904;6.038;2023-07-31T04:59:11;99265.94;;;17.08;100.00
59419;BME280;45224;50.904;6.038;2023-07-31T05:00:41;99270.38;;;17.06;100.00
59419;BME280;45224;50.904;6.038;2023-07-31T05:02:12;99259.97;;;17.04;100.00
59419;BME280;45224;50.904;6.038;2023-07-31T05:03:43;99248.38;;;17.11;100.00
59419;BME280;45224;50.904;6.038;2023-07-31T05:05:13;99257.19;;;17.09;100.00
59419;BME280;45224;50.904;6.038;2023-07-31T05:06:44;99251.28;;;17.04;100.00
59419;BME280;45224;50.904;6.038;2023-07-31T05:08:14;99245.84;;;17.10;100.00
59419;BME280;45224;50.904;6.038;2023-07-31T05:09:47;99257.16;;;17.10;100.00
59419;BME280;45224;50.904;6.038;2023-07-31T05:11:18;99246.59;;;17.13;100.00
59419;BME280;45224;50.904;6.038;2023-07-31T05:12:48;99245.16;;;17.05;100.00
59419;BME280;45224;50.904;6.038;2023-07-31T05:14:19;99240.59;;;17.10;100.00
59419;BME280;45224;50.904;6.038;2023-07-31T05:15:50;99243.28;;;17.08;100.00
59419;BME280;45224;50.904;6.038;2023-07-31T05:17:20;99230.41;;;17.04;100.00
59419;BME280;45224;50.904;6.038;2023-07-31T05:18:51;99242.53;;;17.05;100.00
59419;BME280;45224;50.904;6.038;2023-07-31T05:20:21;99249.47;;;17.06;100.00
59419;BME280;45224;50.904;6.038;2023-07-31T05:21:52;99248.75;;;17.02;100.00
59419;BME280;45224;50.904;6.038;2023-07-31T05:23:22;99247.88;;;17.02;100.00
59419;BME280;45224;50.904;6.038;2023-07-31T05:24:53;99243.56;;;17.01;100.00
59419;BME280;45224;50.904;6.038;2023-07-31T05:26:24;99242.97;;;16.92;100.00
59419;BME280;45224;50.904;6.038;2023-07-31T05:27:55;99240.84;;;17.04;100.00
59419;BME280;45224;50.904;6.038;2023-07-31T05:29:25;99240.03;;;17.02;100.00
59419;BME280;45224;50.904;6.038;2023-07-31T05:31:00;99233.53;;;16.88;100.00
59419;BME280;45224;50.904;6.038;2023-07-31T05:32:31;99233.22;;;16.97;100.00
59419;BME280;45224;50.904;6.038;2023-07-31T05:34:01;99243.03;;;16.91;100.00
59419;BME280;45224;50.904;6.038;2023-07-31T05:35:32;99233.59;;;16.87;100.00
59419;BME280;45224;50.904;6.038;2023-07-31T05:37:02;99236.44;;;16.79;100.00
59419;BME280;45224;50.904;6.038;2023-07-31T05:38:33;99236.47;;;16.77;100.00
59419;BME280;45224;50.904;6.038;2023-07-31T05:40:04;99241.84;;;16.73;100.00
59419;BME280;45224;50.904;6.038;2023-07-31T05:41:35;99238.28;;;16.75;100.00
59419;BME280;45224;50.904;6.038;2023-07-31T05:43:05;99231.53;;;16.70;100.00
59419;BME280;45224;50.904;6.038;2023-07-31T05:44:38;99222.84;;;16.69;100.00
59419;BME280;45224;50.904;6.038;2023-07-31T05:46:09;99230.31;;;16.80;100.00
59419;BME280;45224;50.904;6.038;2023-07-31T05:47:39;99226.84;;;16.79;100.00
59419;BME280;45224;50.904;6.038;2023-07-31T05:49:10;99227.81;;;16.77;100.00
59419;BME280;45224;50.904;6.038;2023-07-31T05:50:40;99225.28;;;16.74;100.00
59419;BME280;45224;50.904;6.038;2023-07-31T05:52:11;99229.63;;;16.75;100.00
59419;BME280;45224;50.904;6.038;2023-07-31T05:53:42;99226.84;;;16.79;100.00
59419;BME280;45224;50.904;6.038;2023-07-31T05:55:12;99225.97;;;16.79;100.00
59419;BME280;45224;50.904;6.038;2023-07-31T05:56:43;99222.38;;;16.83;100.00
59419;BME280;45224;50.904;6.038;2023-07-31T05:58:13;99231.94;;;16.83;100.00
59419;BME280;45224;50.904;6.038;2023-07-31T05:59:44;99228.44;;;16.84;100.00
59419;BME280;45224;50.904;6.038;2023-07-31T06:01:15;99223.09;;;16.88;100.00
59419;BME280;45224;50.904;6.038;2023-07-31T06:02:46;99221.28;;;16.90;100.00
59419;BME280;45224;50.904;6.038;2023-07-31T06:04:17;99220.59;;;16.85;100.00
59419;BME280;45224;50.904;6.038;2023-07-31T06:05:48;99213.53;;;16.87;100.00
59419;BME280;45224;50.904;6.038;2023-07-31T06:07:18;99211.88;;;16.85;100.00
59419;BME280;45224;50.904;6.038;2023-07-31T06:08:49;99214.25;;;16.92;100.00
59419;BME280;45224;50.904;6.038;2023-07-31T06:10:20;99208.13;;;16.93;100.00
59419;BME280;45224;50.904;6.038;2023-07-31T06:11:50;99213.53;;;16.87;100.00
59419;BME280;45224;50.904;6.038;2023-07-31T06:13:21;99219.41;;;16.94;100.00
59419;BME280;45224;50.904;6.038;2023-07-31T06:14:54;99215.09;;;16.93;100.00
59419;BME280;45224;50.904;6.038;2023-07-31T06:16:27;99212.34;;;16.97;100.00
59419;BME280;45224;50.904;6.038;2023-07-31T06:17:57;99216.59;;;17.00;100.00
59419;BME280;45224;50.904;6.038;2023-07-31T06:19:29;99218.97;;;17.06;100.00
59419;BME280;45224;50.904;6.038;2023-07-31T06:20:59;99216.38;;;17.06;100.00
59419;BME280;45224;50.904;6.038;2023-07-31T06:22:30;99218.75;;;17.12;100.00
59419;BME280;45224;50.904;6.038;2023-07-31T06:24:05;99216.88;;;17.16;100.00
59419;BME280;45224;50.904;6.038;2023-07-31T06:25:36;99216.00;;;17.17;100.00
59419;BME280;45224;50.904;6.038;2023-07-31T06:27:06;99218.94;;;17.08;100.00
59419;BME280;45224;50.904;6.038;2023-07-31T06:28:37;99221.53;;;17.08;100.00
59419;BME280;45224;50.904;6.038;2023-07-31T06:30:07;99215.19;;;17.15;100.00
59419;BME280;45224;50.904;6.038;2023-07-31T06:31:38;99213.03;;;17.03;100.00
59419;BME280;45224;50.904;6.038;2023-07-31T06:33:09;99213.75;;;17.06;100.00
59419;BME280;45224;50.904;6.038;2023-07-31T06:34:39;99205.88;;;17.08;100.00
59419;BME280;45224;50.904;6.038;2023-07-31T06:36:10;99196.22;;;17.10;100.00
59419;BME280;45224;50.904;6.038;2023-07-31T06:37:41;99204.91;;;17.10;100.00
59419;BME280;45224;50.904;6.038;2023-07-31T06:39:14;99200.44;;;17.14;100.00
59419;BME280;45224;50.904;6.038;2023-07-31T06:40:44;99198.75;;;17.11;100.00
59419;BME280;45224;50.904;6.038;2023-07-31T06:42:15;99202.72;;;17.23;100.00
59419;BME280;45224;50.904;6.038;2023-07-31T06:43:45;99211.31;;;17.02;100.00
59419;BME280;45224;50.904;6.038;2023-07-31T06:45:16;99215.53;;;17.06;100.00
59419;BME280;45224;50.904;6.038;2023-07-31T06:46:47;99207.78;;;17.03;100.00
59419;BME280;45224;50.904;6.038;2023-07-31T06:48:17;99211.88;;;17.10;100.00
59419;BME280;45224;50.904;6.038;2023-07-31T06:49:48;99211.66;;;17.16;100.00
59419;BME280;45224;50.904;6.038;2023-07-31T06:51:18;99209.22;;;17.11;100.00
59419;BME280;45224;50.904;6.038;2023-07-31T06:52:49;99219.44;;;17.18;100.00
59419;BME280;45224;50.904;6.038;2023-07-31T06:54:19;99218.09;;;17.07;100.00
59419;BME280;45224;50.904;6.038;2023-07-31T06:55:50;99209.28;;;17.10;100.00
59419;BME280;45224;50.904;6.038;2023-07-31T06:57:22;99215.78;;;16.98;100.00
59419;BME280;45224;50.904;6.038;2023-07-31T06:58:52;99219.97;;;17.04;100.00
59419;BME280;45224;50.904;6.038;2023-07-31T07:00:23;99214.66;;;17.05;100.00
59419;BME280;45224;50.904;6.038;2023-07-31T07:01:53;99215.38;;;17.10;100.00
59419;BME280;45224;50.904;6.038;2023-07-31T07:03:24;99221.53;;;17.08;100.00
59419;BME280;45224;50.904;6.038;2023-07-31T07:04:56;99213.97;;;17.00;100.00
59419;BME280;45224;50.904;6.038;2023-07-31T07:06:26;99213.97;;;17.00;100.00
59419;BME280;45224;50.904;6.038;2023-07-31T07:07:59;99217.63;;;16.96;100.00
59419;BME280;45224;50.904;6.038;2023-07-31T07:09:30;99211.94;;;16.83;100.00
59419;BME280;45224;50.904;6.038;2023-07-31T07:11:00;99209.38;;;16.82;100.00
59419;BME280;45224;50.904;6.038;2023-07-31T07:12:32;99211.81;;;16.88;100.00
59419;BME280;45224;50.904;6.038;2023-07-31T07:14:03;99209.47;;;16.78;100.00
59419;BME280;45224;50.904;6.038;2023-07-31T07:15:33;99209.44;;;16.80;100.00
59419;BME280;45224;50.904;6.038;2023-07-31T07:17:04;99212.94;;;16.79;100.00
59419;BME280;45224;50.904;6.038;2023-07-31T07:18:34;99198.09;;;16.81;100.00
59419;BME280;45224;50.904;6.038;2023-07-31T07:20:05;99192.97;;;16.78;100.00
59419;BME280;45224;50.904;6.038;2023-07-31T07:21:36;99198.81;;;16.86;100.00
59419;BME280;45224;50.904;6.038;2023-07-31T07:23:07;99198.34;;;16.73;100.00
59419;BME280;45224;50.904;6.038;2023-07-31T07:24:37;99198.41;;;16.72;100.00
59419;BME280;45224;50.904;6.038;2023-07-31T07:26:08;99197.28;;;16.79;100.00
59419;BME280;45224;50.904;6.038;2023-07-31T07:27:38;99205.09;;;16.79;100.00
59419;BME280;45224;50.904;6.038;2023-07-31T07:29:09;99206.66;;;16.85;100.00
59419;BME280;45224;50.904;6.038;2023-07-31T07:30:41;99201.00;;;16.72;100.00
59419;BME280;45224;50.904;6.038;2023-07-31T07:32:12;99210.16;;;16.85;100.00
59419;BME280;45224;50.904;6.038;2023-07-31T07:33:43;99205.78;;;16.86;100.00
59419;BME280;45224;50.904;6.038;2023-07-31T07:35:13;99207.44;;;16.88;100.00
59419;BME280;45224;50.904;6.038;2023-07-31T07:36:44;99213.22;;;16.96;100.00
59419;BME280;45224;50.904;6.038;2023-07-31T07:38:14;99203.75;;;16.94;100.00
59419;BME280;45224;50.904;6.038;2023-07-31T07:39:49;99196.84;;;16.93;100.00
59419;BME280;45224;50.904;6.038;2023-07-31T07:41:19;99200.38;;;16.90;100.00
59419;BME280;45224;50.904;6.038;2023-07-31T07:42:50;99186.94;;;16.76;100.00
59419;BME280;45224;50.904;6.038;2023-07-31T07:44:20;99197.78;;;16.90;100.00
59419;BME280;45224;50.904;6.038;2023-07-31T07:45:51;99197.97;;;16.84;100.00
59419;BME280;45224;50.904;6.038;2023-07-31T07:47:21;99200.56;;;16.84;100.00
59419;BME280;45224;50.904;6.038;2023-07-31T07:48:52;99199.53;;;16.90;100.00
59419;BME280;45224;50.904;6.038;2023-07-31T07:50:23;99190.97;;;16.86;100.00
59419;BME280;45224;50.904;6.038;2023-07-31T07:51:53;99192.56;;;16.90;100.00
59419;BME280;45224;50.904;6.038;2023-07-31T07:53:24;99189.66;;;16.73;100.00
59419;BME280;45224;50.904;6.038;2023-07-31T07:54:55;99178.53;;;16.68;100.00
59419;BME280;45224;50.904;6.038;2023-07-31T07:56:26;99185.09;;;16.79;100.00
59419;BME280;45224;50.904;6.038;2023-07-31T07:57:57;99183.94;;;16.88;100.00
59419;BME280;45224;50.904;6.038;2023-07-31T07:59:27;99186.50;;;16.90;100.00
59419;BME280;45224;50.904;6.038;2023-07-31T08:00:58;99181.78;;;17.00;100.00